sensor_id;sensor_type;location;lat;lon;timestamp;P1;durP1;ratioP1;P2;durP2;ratioP2
29662;SDS011;16578;53.266;7.920;2022-09-12T00:01:56;10.88;;;9.80;;
29662;SDS011;16578;53.266;7.920;2022-09-12T00:04:21;10.02;;;9.02;;
29662;SDS011;16578;53.266;7.920;2022-09-12T00:06:47;9.80;;;8.98;;
29662;SDS011;16578;53.266;7.920;2022-09-12T00:09:13;9.82;;;9.02;;
29662;SDS011;16578;53.266;7.920;2022-09-12T00:11:40;9.15;;;8.32;;
29662;SDS011;16578;53.266;7.920;2022-09-12T00:14:08;9.60;;;8.75;;
29662;SDS011;16578;53.266;7.920;2022-09-12T00:16:36;9.75;;;8.93;;
29662;SDS011;16578;53.266;7.920;2022-09-12T00:19:03;9.70;;;8.85;;
29662;SDS011;16578;53.266;7.920;2022-09-12T00:21:31;9.70;;;8.90;;
29662;SDS011;16578;53.266;7.920;2022-09-12T00:23:57;9.75;;;8.90;;
29662;SDS011;16578;53.266;7.920;2022-09-12T00:26:23;8.88;;;8.07;;
29662;SDS011;16578;53.266;7.920;2022-09-12T00:28:49;9.85;;;8.90;;
29662;SDS011;16578;53.266;7.920;2022-09-12T00:31:16;11.13;;;9.43;;
29662;SDS011;16578;53.266;7.920;2022-09-12T00:33:43;14.57;;;9.50;;
29662;SDS011;16578;53.266;7.920;2022-09-12T00:36:12;9.77;;;8.88;;
29662;SDS011;16578;53.266;7.920;2022-09-12T00:38:39;10.32;;;9.43;;
29662;SDS011;16578;53.266;7.920;2022-09-12T00:43:43;10.02;;;9.13;;
29662;SDS011;16578;53.266;7.920;2022-09-12T00:46:24;10.55;;;9.60;;
29662;SDS011;16578;53.266;7.920;2022-09-12T00:49:11;9.88;;;8.88;;
29662;SDS011;16578;53.266;7.920;2022-09-12T00:51:43;9.85;;;9.00;;
29662;SDS011;16578;53.266;7.920;2022-09-12T00:54:15;11.35;;;10.30;;
29662;SDS011;16578;53.266;7.920;2022-09-12T00:56:48;10.25;;;9.35;;
29662;SDS011;16578;53.266;7.920;2022-09-12T00:59:17;9.73;;;8.88;;
29662;SDS011;16578;53.266;7.920;2022-09-12T01:01:50;9.63;;;8.82;;
29662;SDS011;16578;53.266;7.920;2022-09-12T01:04:17;10.93;;;9.93;;
29662;SDS011;16578;53.266;7.920;2022-09-12T01:06:45;10.85;;;9.80;;
29662;SDS011;16578;53.266;7.920;2022-09-12T01:09:13;10.93;;;9.93;;
29662;SDS011;16578;53.266;7.920;2022-09-12T01:11:42;10.73;;;9.68;;
29662;SDS011;16578;53.266;7.920;2022-09-12T01:14:10;11.13;;;10.05;;
29662;SDS011;16578;53.266;7.920;2022-09-12T01:16:37;11.30;;;10.35;;
29662;SDS011;16578;53.266;7.920;2022-09-12T01:21:59;12.25;;;11.05;;
29662;SDS011;16578;53.266;7.920;2022-09-12T01:24:52;11.45;;;10.35;;
29662;SDS011;16578;53.266;7.920;2022-09-12T01:30:44;11.13;;;10.13;;
29662;SDS011;16578;53.266;7.920;2022-09-12T01:33:41;11.73;;;10.73;;
29662;SDS011;16578;53.266;7.920;2022-09-12T01:44:45;13.13;;;11.82;;
29662;SDS011;16578;53.266;7.920;2022-09-12T01:50:16;12.30;;;11.15;;
29662;SDS011;16578;53.266;7.920;2022-09-12T02:00:31;12.30;;;11.15;;
29662;SDS011;16578;53.266;7.920;2022-09-12T02:03:16;13.13;;;11.93;;
29662;SDS011;16578;53.266;7.920;2022-09-12T02:06:07;12.02;;;10.98;;
29662;SDS011;16578;53.266;7.920;2022-09-12T02:09:05;12.75;;;11.45;;
29662;SDS011;16578;53.266;7.920;2022-09-12T02:11:32;12.75;;;11.65;;
29662;SDS011;16578;53.266;7.920;2022-09-12T02:14:02;12.70;;;11.50;;
29662;SDS011;16578;53.266;7.920;2022-09-12T02:16:46;12.98;;;11.68;;
29662;SDS011;16578;53.266;7.920;2022-09-12T02:19:15;13.27;;;11.98;;
29662;SDS011;16578;53.266;7.920;2022-09-12T02:24:15;11.23;;;10.23;;
29662;SDS011;16578;53.266;7.920;2022-09-12T02:26:55;11.48;;;10.48;;
29662;SDS011;16578;53.266;7.920;2022-09-12T02:29:38;12.20;;;10.98;;
29662;SDS011;16578;53.266;7.920;2022-09-12T02:32:05;11.57;;;10.50;;
29662;SDS011;16578;53.266;7.920;2022-09-12T02:34:46;11.93;;;10.82;;
29662;SDS011;16578;53.266;7.920;2022-09-12T02:37:21;12.27;;;11.17;;
29662;SDS011;16578;53.266;7.920;2022-09-12T02:40:11;12.95;;;11.75;;
29662;SDS011;16578;53.266;7.920;2022-09-12T02:42:38;12.73;;;11.57;;
29662;SDS011;16578;53.266;7.920;2022-09-12T02:45:03;12.75;;;11.57;;
29662;SDS011;16578;53.266;7.920;2022-09-12T02:47:31;13.57;;;12.18;;
29662;SDS011;16578;53.266;7.920;2022-09-12T02:50:14;12.60;;;11.50;;
29662;SDS011;16578;53.266;7.920;2022-09-12T02:52:40;13.40;;;12.10;;
29662;SDS011;16578;53.266;7.920;2022-09-12T02:55:07;12.60;;;11.50;;
29662;SDS011;16578;53.266;7.920;2022-09-12T02:57:35;12.20;;;11.05;;
29662;SDS011;16578;53.266;7.920;2022-09-12T03:00:03;12.07;;;11.00;;
29662;SDS011;16578;53.266;7.920;2022-09-12T03:05:21;12.38;;;11.15;;
29662;SDS011;16578;53.266;7.920;2022-09-12T03:16:27;11.23;;;10.23;;
29662;SDS011;16578;53.266;7.920;2022-09-12T03:27:04;11.60;;;10.53;;
29662;SDS011;16578;53.266;7.920;2022-09-12T03:29:52;11.35;;;10.27;;
29662;SDS011;16578;53.266;7.920;2022-09-12T03:32:18;11.23;;;10.13;;
29662;SDS011;16578;53.266;7.920;2022-09-12T03:34:44;11.25;;;10.18;;
29662;SDS011;16578;53.266;7.920;2022-09-12T03:37:09;11.45;;;10.35;;
29662;SDS011;16578;53.266;7.920;2022-09-12T03:39:35;10.88;;;9.88;;
29662;SDS011;16578;53.266;7.920;2022-09-12T03:42:00;10.95;;;9.95;;
29662;SDS011;16578;53.266;7.920;2022-09-12T03:44:26;11.32;;;9.77;;
29662;SDS011;16578;53.266;7.920;2022-09-12T03:46:51;10.57;;;9.57;;
29662;SDS011;16578;53.266;7.920;2022-09-12T03:49:17;11.10;;;10.10;;
29662;SDS011;16578;53.266;7.920;2022-09-12T03:51:42;11.00;;;9.90;;
29662;SDS011;16578;53.266;7.920;2022-09-12T03:54:08;11.52;;;10.48;;
29662;SDS011;16578;53.266;7.920;2022-09-12T03:56:35;11.02;;;9.93;;
29662;SDS011;16578;53.266;7.920;2022-09-12T03:59:03;11.60;;;10.48;;
29662;SDS011;16578;53.266;7.920;2022-09-12T04:01:30;11.35;;;10.25;;
29662;SDS011;16578;53.266;7.920;2022-09-12T04:03:56;11.35;;;10.35;;
29662;SDS011;16578;53.266;7.920;2022-09-12T04:06:21;11.95;;;10.82;;
29662;SDS011;16578;53.266;7.920;2022-09-12T04:08:51;11.32;;;10.23;;
29662;SDS011;16578;53.266;7.920;2022-09-12T04:11:19;12.63;;;11.38;;
29662;SDS011;16578;53.266;7.920;2022-09-12T04:13:45;11.63;;;10.38;;
29662;SDS011;16578;53.266;7.920;2022-09-12T04:16:12;11.73;;;10.73;;
29662;SDS011;16578;53.266;7.920;2022-09-12T04:18:38;10.73;;;9.73;;
29662;SDS011;16578;53.266;7.920;2022-09-12T04:21:04;13.02;;;11.40;;
29662;SDS011;16578;53.266;7.920;2022-09-12T04:23:32;12.32;;;11.13;;
29662;SDS011;16578;53.266;7.920;2022-09-12T04:25:59;11.70;;;10.52;;
29662;SDS011;16578;53.266;7.920;2022-09-12T04:28:26;12.70;;;11.50;;
29662;SDS011;16578;53.266;7.920;2022-09-12T04:30:53;14.68;;;11.43;;
29662;SDS011;16578;53.266;7.920;2022-09-12T04:33:19;12.55;;;11.35;;
29662;SDS011;16578;53.266;7.920;2022-09-12T04:35:44;11.75;;;10.75;;
29662;SDS011;16578;53.266;7.920;2022-09-12T04:38:10;11.82;;;10.68;;
29662;SDS011;16578;53.266;7.920;2022-09-12T04:40:36;13.15;;;11.95;;
29662;SDS011;16578;53.266;7.920;2022-09-12T04:43:02;12.45;;;11.32;;
29662;SDS011;16578;53.266;7.920;2022-09-12T04:45:28;12.05;;;10.90;;
29662;SDS011;16578;53.266;7.920;2022-09-12T04:47:53;12.50;;;11.30;;
29662;SDS011;16578;53.266;7.920;2022-09-12T04:50:19;13.18;;;11.98;;
29662;SDS011;16578;53.266;7.920;2022-09-12T04:52:49;11.82;;;10.75;;
29662;SDS011;16578;53.266;7.920;2022-09-12T04:55:15;12.68;;;11.23;;
29662;SDS011;16578;53.266;7.920;2022-09-12T04:57:40;13.25;;;11.93;;
29662;SDS011;16578;53.266;7.920;2022-09-12T05:00:07;13.48;;;11.95;;
29662;SDS011;16578;53.266;7.920;2022-09-12T05:02:37;12.20;;;10.98;;
29662;SDS011;16578;53.266;7.920;2022-09-12T05:05:03;12.25;;;11.13;;
29662;SDS011;16578;53.266;7.920;2022-09-12T05:07:28;13.25;;;11.93;;
29662;SDS011;16578;53.266;7.920;2022-09-12T05:09:54;14.90;;;13.50;;
29662;SDS011;16578;53.266;7.920;2022-09-12T05:12:19;13.20;;;11.75;;
29662;SDS011;16578;53.266;7.920;2022-09-12T05:14:45;14.20;;;12.90;;
29662;SDS011;16578;53.266;7.920;2022-09-12T05:17:11;15.77;;;14.25;;
29662;SDS011;16578;53.266;7.920;2022-09-12T05:19:36;15.38;;;13.85;;
29662;SDS011;16578;53.266;7.920;2022-09-12T05:22:03;15.23;;;13.82;;
29662;SDS011;16578;53.266;7.920;2022-09-12T05:24:30;16.48;;;14.82;;
29662;SDS011;16578;53.266;7.920;2022-09-12T05:26:56;16.77;;;15.18;;
29662;SDS011;16578;53.266;7.920;2022-09-12T05:29:22;16.90;;;15.27;;
29662;SDS011;16578;53.266;7.920;2022-09-12T05:31:49;17.50;;;15.70;;
29662;SDS011;16578;53.266;7.920;2022-09-12T05:34:17;16.73;;;15.00;;
29662;SDS011;16578;53.266;7.920;2022-09-12T05:36:43;23.42;;;15.98;;
29662;SDS011;16578;53.266;7.920;2022-09-12T05:39:09;17.95;;;16.25;;
29662;SDS011;16578;53.266;7.920;2022-09-12T05:41:34;18.40;;;16.58;;
29662;SDS011;16578;53.266;7.920;2022-09-12T05:44:01;18.73;;;16.83;;
29662;SDS011;16578;53.266;7.920;2022-09-12T05:46:30;18.92;;;16.98;;
29662;SDS011;16578;53.266;7.920;2022-09-12T05:49:03;19.45;;;17.45;;
29662;SDS011;16578;53.266;7.920;2022-09-12T05:51:31;20.23;;;18.17;;
29662;SDS011;16578;53.266;7.920;2022-09-12T05:53:59;19.15;;;17.15;;
29662;SDS011;16578;53.266;7.920;2022-09-12T05:56:27;20.45;;;18.45;;
29662;SDS011;16578;53.266;7.920;2022-09-12T05:59:02;20.57;;;18.60;;
29662;SDS011;16578;53.266;7.920;2022-09-12T06:01:30;20.73;;;18.73;;
29662;SDS011;16578;53.266;7.920;2022-09-12T06:03:57;20.52;;;18.45;;
29662;SDS011;16578;53.266;7.920;2022-09-12T06:06:25;21.58;;;19.27;;
29662;SDS011;16578;53.266;7.920;2022-09-12T06:08:52;21.92;;;19.08;;
29662;SDS011;16578;53.266;7.920;2022-09-12T06:11:21;20.58;;;18.33;;
29662;SDS011;16578;53.266;7.920;2022-09-12T06:16:20;20.75;;;18.73;;
29662;SDS011;16578;53.266;7.920;2022-09-12T06:18:47;21.23;;;19.05;;
29662;SDS011;16578;53.266;7.920;2022-09-12T06:21:14;22.17;;;19.92;;
29662;SDS011;16578;53.266;7.920;2022-09-12T06:23:40;22.20;;;20.00;;
29662;SDS011;16578;53.266;7.920;2022-09-12T06:26:07;23.20;;;20.80;;
29662;SDS011;16578;53.266;7.920;2022-09-12T06:28:35;22.88;;;20.15;;
29662;SDS011;16578;53.266;7.920;2022-09-12T06:31:06;23.08;;;20.67;;
29662;SDS011;16578;53.266;7.920;2022-09-12T06:33:38;22.88;;;20.58;;
29662;SDS011;16578;53.266;7.920;2022-09-12T06:36:06;24.65;;;21.95;;
29662;SDS011;16578;53.266;7.920;2022-09-12T06:38:34;24.27;;;21.70;;
29662;SDS011;16578;53.266;7.920;2022-09-12T06:41:05;28.83;;;22.10;;
29662;SDS011;16578;53.266;7.920;2022-09-12T06:43:32;25.13;;;21.17;;
29662;SDS011;16578;53.266;7.920;2022-09-12T06:45:58;25.05;;;22.35;;
29662;SDS011;16578;53.266;7.920;2022-09-12T06:48:24;23.55;;;21.05;;
29662;SDS011;16578;53.266;7.920;2022-09-12T06:53:22;22.33;;;19.95;;
29662;SDS011;16578;53.266;7.920;2022-09-12T06:56:22;22.92;;;20.45;;
29662;SDS011;16578;53.266;7.920;2022-09-12T06:58:43;24.20;;;21.52;;
29662;SDS011;16578;53.266;7.920;2022-09-12T07:01:10;22.25;;;19.90;;
29662;SDS011;16578;53.266;7.920;2022-09-12T07:03:47;24.52;;;21.92;;
29662;SDS011;16578;53.266;7.920;2022-09-12T07:06:15;25.23;;;22.45;;
29662;SDS011;16578;53.266;7.920;2022-09-12T07:08:42;24.83;;;20.55;;
29662;SDS011;16578;53.266;7.920;2022-09-12T07:11:10;22.92;;;20.63;;
29662;SDS011;16578;53.266;7.920;2022-09-12T07:13:37;23.58;;;21.05;;
29662;SDS011;16578;53.266;7.920;2022-09-12T07:16:08;23.52;;;20.67;;
29662;SDS011;16578;53.266;7.920;2022-09-12T07:18:34;21.75;;;19.50;;
29662;SDS011;16578;53.266;7.920;2022-09-12T07:21:02;22.92;;;20.45;;
29662;SDS011;16578;53.266;7.920;2022-09-12T07:23:29;23.33;;;21.02;;
29662;SDS011;16578;53.266;7.920;2022-09-12T07:25:56;19.75;;;17.65;;
29662;SDS011;16578;53.266;7.920;2022-09-12T07:28:23;22.58;;;20.02;;
29662;SDS011;16578;53.266;7.920;2022-09-12T07:30:50;23.30;;;20.80;;
29662;SDS011;16578;53.266;7.920;2022-09-12T07:33:18;22.73;;;20.33;;
29662;SDS011;16578;53.266;7.920;2022-09-12T07:35:47;23.67;;;21.23;;
29662;SDS011;16578;53.266;7.920;2022-09-12T07:38:13;24.00;;;21.38;;
29662;SDS011;16578;53.266;7.920;2022-09-12T07:40:40;23.58;;;20.92;;
29662;SDS011;16578;53.266;7.920;2022-09-12T07:43:06;25.42;;;22.77;;
29662;SDS011;16578;53.266;7.920;2022-09-12T07:45:31;25.27;;;22.33;;
29662;SDS011;16578;53.266;7.920;2022-09-12T07:47:57;24.15;;;21.67;;
29662;SDS011;16578;53.266;7.920;2022-09-12T07:50:23;27.73;;;22.88;;
29662;SDS011;16578;53.266;7.920;2022-09-12T07:52:48;26.45;;;23.42;;
29662;SDS011;16578;53.266;7.920;2022-09-12T07:55:14;24.73;;;21.95;;
29662;SDS011;16578;53.266;7.920;2022-09-12T07:57:40;28.02;;;23.15;;
29662;SDS011;16578;53.266;7.920;2022-09-12T08:00:06;23.98;;;21.48;;
29662;SDS011;16578;53.266;7.920;2022-09-12T08:02:33;22.95;;;20.55;;
29662;SDS011;16578;53.266;7.920;2022-09-12T08:04:58;23.85;;;21.30;;
29662;SDS011;16578;53.266;7.920;2022-09-12T08:07:24;25.10;;;21.52;;
29662;SDS011;16578;53.266;7.920;2022-09-12T08:09:50;26.00;;;23.27;;
29662;SDS011;16578;53.266;7.920;2022-09-12T08:12:15;26.30;;;23.48;;
29662;SDS011;16578;53.266;7.920;2022-09-12T08:14:41;30.80;;;25.80;;
29662;SDS011;16578;53.266;7.920;2022-09-12T08:17:07;26.98;;;24.17;;
29662;SDS011;16578;53.266;7.920;2022-09-12T08:19:33;31.08;;;25.67;;
29662;SDS011;16578;53.266;7.920;2022-09-12T08:21:59;30.75;;;26.08;;
29662;SDS011;16578;53.266;7.920;2022-09-12T08:24:24;26.33;;;23.38;;
29662;SDS011;16578;53.266;7.920;2022-09-12T08:26:50;30.48;;;25.00;;
29662;SDS011;16578;53.266;7.920;2022-09-12T08:29:16;28.73;;;25.63;;
29662;SDS011;16578;53.266;7.920;2022-09-12T08:31:42;28.58;;;25.05;;
29662;SDS011;16578;53.266;7.920;2022-09-12T08:34:07;28.88;;;24.55;;
29662;SDS011;16578;53.266;7.920;2022-09-12T08:36:34;26.25;;;23.48;;
29662;SDS011;16578;53.266;7.920;2022-09-12T08:39:01;27.42;;;23.80;;
29662;SDS011;16578;53.266;7.920;2022-09-12T08:41:30;28.88;;;23.85;;
29662;SDS011;16578;53.266;7.920;2022-09-12T08:46:59;28.95;;;23.70;;
29662;SDS011;16578;53.266;7.920;2022-09-12T08:58:00;25.52;;;21.30;;
29662;SDS011;16578;53.266;7.920;2022-09-12T09:00:37;24.02;;;21.15;;
29662;SDS011;16578;53.266;7.920;2022-09-12T09:03:17;24.58;;;20.58;;
29662;SDS011;16578;53.266;7.920;2022-09-12T09:06:07;23.58;;;20.10;;
29662;SDS011;16578;53.266;7.920;2022-09-12T09:08:46;22.52;;;20.13;;
29662;SDS011;16578;53.266;7.920;2022-09-12T09:16:59;23.88;;;20.08;;
29662;SDS011;16578;53.266;7.920;2022-09-12T09:19:30;28.98;;;20.42;;
29662;SDS011;16578;53.266;7.920;2022-09-12T09:22:09;22.77;;;19.42;;
29662;SDS011;16578;53.266;7.920;2022-09-12T09:24:46;21.02;;;18.48;;
29662;SDS011;16578;53.266;7.920;2022-09-12T09:30:15;23.40;;;20.90;;
29662;SDS011;16578;53.266;7.920;2022-09-12T09:32:43;21.83;;;19.48;;
29662;SDS011;16578;53.266;7.920;2022-09-12T09:37:42;40.00;;;22.25;;
29662;SDS011;16578;53.266;7.920;2022-09-12T09:43:17;26.20;;;22.20;;
29662;SDS011;16578;53.266;7.920;2022-09-12T09:45:47;25.40;;;21.33;;
29662;SDS011;16578;53.266;7.920;2022-09-12T09:48:21;25.25;;;21.75;;
29662;SDS011;16578;53.266;7.920;2022-09-12T09:50:53;23.55;;;20.63;;
29662;SDS011;16578;53.266;7.920;2022-09-12T09:56:11;24.35;;;21.02;;
29662;SDS011;16578;53.266;7.920;2022-09-12T09:58:52;26.08;;;21.88;;
29662;SDS011;16578;53.266;7.920;2022-09-12T10:01:18;24.20;;;20.48;;
29662;SDS011;16578;53.266;7.920;2022-09-12T10:03:52;24.48;;;20.73;;
29662;SDS011;16578;53.266;7.920;2022-09-12T10:08:44;21.77;;;18.25;;
29662;SDS011;16578;53.266;7.920;2022-09-12T10:16:19;17.70;;;14.90;;
29662;SDS011;16578;53.266;7.920;2022-09-12T10:18:47;19.63;;;16.30;;
29662;SDS011;16578;53.266;7.920;2022-09-12T10:21:26;19.90;;;15.85;;
29662;SDS011;16578;53.266;7.920;2022-09-12T10:24:45;16.88;;;14.63;;
29662;SDS011;16578;53.266;7.920;2022-09-12T10:26:55;20.30;;;16.02;;
29662;SDS011;16578;53.266;7.920;2022-09-12T10:29:31;19.17;;;15.23;;
29662;SDS011;16578;53.266;7.920;2022-09-12T10:32:02;20.70;;;15.27;;
29662;SDS011;16578;53.266;7.920;2022-09-12T10:34:36;16.67;;;14.15;;
29662;SDS011;16578;53.266;7.920;2022-09-12T10:37:06;16.92;;;12.68;;
29662;SDS011;16578;53.266;7.920;2022-09-12T10:39:35;15.48;;;13.05;;
29662;SDS011;16578;53.266;7.920;2022-09-12T10:42:03;13.90;;;11.95;;
29662;SDS011;16578;53.266;7.920;2022-09-12T10:44:30;14.65;;;11.85;;
29662;SDS011;16578;53.266;7.920;2022-09-12T10:46:58;14.07;;;11.75;;
29662;SDS011;16578;53.266;7.920;2022-09-12T10:49:42;13.13;;;10.90;;
29662;SDS011;16578;53.266;7.920;2022-09-12T10:52:15;17.10;;;10.30;;
29662;SDS011;16578;53.266;7.920;2022-09-12T10:54:41;15.70;;;10.00;;
29662;SDS011;16578;53.266;7.920;2022-09-12T11:05:06;12.75;;;10.18;;
29662;SDS011;16578;53.266;7.920;2022-09-12T11:10:54;11.13;;;9.32;;
29662;SDS011;16578;53.266;7.920;2022-09-12T11:27:08;9.38;;;7.50;;
29662;SDS011;16578;53.266;7.920;2022-09-12T11:34:54;8.45;;;6.68;;
29662;SDS011;16578;53.266;7.920;2022-09-12T11:46:06;10.52;;;8.05;;
29662;SDS011;16578;53.266;7.920;2022-09-12T11:51:19;7.45;;;6.65;;
29662;SDS011;16578;53.266;7.920;2022-09-12T11:53:55;8.77;;;6.53;;
29662;SDS011;16578;53.266;7.920;2022-09-12T11:56:42;8.60;;;7.30;;
29662;SDS011;16578;53.266;7.920;2022-09-12T11:59:15;9.93;;;7.47;;
29662;SDS011;16578;53.266;7.920;2022-09-12T12:01:54;9.57;;;7.78;;
29662;SDS011;16578;53.266;7.920;2022-09-12T12:04:24;10.02;;;8.23;;
29662;SDS011;16578;53.266;7.920;2022-09-12T12:07:04;8.10;;;6.13;;
29662;SDS011;16578;53.266;7.920;2022-09-12T12:09:33;6.50;;;5.53;;
29662;SDS011;16578;53.266;7.920;2022-09-12T12:11:59;7.53;;;6.75;;
29662;SDS011;16578;53.266;7.920;2022-09-12T12:14:41;7.80;;;6.75;;
29662;SDS011;16578;53.266;7.920;2022-09-12T12:17:19;8.82;;;6.80;;
29662;SDS011;16578;53.266;7.920;2022-09-12T12:20:00;11.23;;;7.28;;
29662;SDS011;16578;53.266;7.920;2022-09-12T12:22:28;10.25;;;7.63;;
29662;SDS011;16578;53.266;7.920;2022-09-12T12:25:05;9.75;;;7.75;;
29662;SDS011;16578;53.266;7.920;2022-09-12T12:27:45;10.23;;;7.70;;
29662;SDS011;16578;53.266;7.920;2022-09-12T12:33:01;7.65;;;6.28;;
29662;SDS011;16578;53.266;7.920;2022-09-12T12:35:38;9.98;;;6.22;;
29662;SDS011;16578;53.266;7.920;2022-09-12T12:38:25;10.32;;;6.63;;
29662;SDS011;16578;53.266;7.920;2022-09-12T12:44:45;9.20;;;7.57;;
29662;SDS011;16578;53.266;7.920;2022-09-12T12:47:07;10.50;;;8.27;;
29662;SDS011;16578;53.266;7.920;2022-09-12T12:49:47;11.73;;;8.57;;
29662;SDS011;16578;53.266;7.920;2022-09-12T12:52:15;12.32;;;9.07;;
29662;SDS011;16578;53.266;7.920;2022-09-12T12:57:22;15.07;;;10.88;;
29662;SDS011;16578;53.266;7.920;2022-09-12T13:00:03;11.32;;;9.13;;
29662;SDS011;16578;53.266;7.920;2022-09-12T13:02:31;15.30;;;10.90;;
29662;SDS011;16578;53.266;7.920;2022-09-12T13:05:02;9.65;;;8.63;;
29662;SDS011;16578;53.266;7.920;2022-09-12T13:07:35;16.40;;;11.25;;
29662;SDS011;16578;53.266;7.920;2022-09-12T13:10:03;13.20;;;9.95;;
29662;SDS011;16578;53.266;7.920;2022-09-12T13:12:32;15.60;;;11.88;;
29662;SDS011;16578;53.266;7.920;2022-09-12T13:15:45;14.95;;;12.27;;
29662;SDS011;16578;53.266;7.920;2022-09-12T13:18:17;13.35;;;10.35;;
29662;SDS011;16578;53.266;7.920;2022-09-12T13:20:51;11.90;;;9.63;;
29662;SDS011;16578;53.266;7.920;2022-09-12T13:23:36;15.48;;;10.50;;
29662;SDS011;16578;53.266;7.920;2022-09-12T13:26:02;12.93;;;9.75;;
29662;SDS011;16578;53.266;7.920;2022-09-12T13:28:34;13.48;;;10.70;;
29662;SDS011;16578;53.266;7.920;2022-09-12T13:33:52;13.50;;;10.40;;
29662;SDS011;16578;53.266;7.920;2022-09-12T13:44:40;12.35;;;9.35;;
29662;SDS011;16578;53.266;7.920;2022-09-12T13:47:09;13.95;;;10.00;;
29662;SDS011;16578;53.266;7.920;2022-09-12T13:49:40;11.18;;;8.68;;
29662;SDS011;16578;53.266;7.920;2022-09-12T13:52:07;11.50;;;8.98;;
29662;SDS011;16578;53.266;7.920;2022-09-12T13:54:40;12.45;;;9.68;;
29662;SDS011;16578;53.266;7.920;2022-09-12T13:57:25;14.70;;;9.60;;
29662;SDS011;16578;53.266;7.920;2022-09-12T14:00:03;10.73;;;9.10;;
29662;SDS011;16578;53.266;7.920;2022-09-12T14:02:42;13.48;;;9.88;;
29662;SDS011;16578;53.266;7.920;2022-09-12T14:05:11;11.27;;;8.55;;
29662;SDS011;16578;53.266;7.920;2022-09-12T14:10:23;11.30;;;9.38;;
29662;SDS011;16578;53.266;7.920;2022-09-12T14:12:58;11.55;;;8.82;;
29662;SDS011;16578;53.266;7.920;2022-09-12T14:15:30;11.82;;;7.45;;
29662;SDS011;16578;53.266;7.920;2022-09-12T14:18:00;9.30;;;7.80;;
29662;SDS011;16578;53.266;7.920;2022-09-12T14:20:28;8.98;;;8.07;;
29662;SDS011;16578;53.266;7.920;2022-09-12T14:22:58;8.05;;;6.63;;
29662;SDS011;16578;53.266;7.920;2022-09-12T14:25:27;7.40;;;5.50;;
29662;SDS011;16578;53.266;7.920;2022-09-12T14:28:01;6.35;;;5.35;;
29662;SDS011;16578;53.266;7.920;2022-09-12T14:30:28;5.68;;;4.93;;
29662;SDS011;16578;53.266;7.920;2022-09-12T14:35:38;5.50;;;4.63;;
29662;SDS011;16578;53.266;7.920;2022-09-12T14:38:12;5.53;;;4.50;;
29662;SDS011;16578;53.266;7.920;2022-09-12T14:40:41;5.90;;;5.03;;
29662;SDS011;16578;53.266;7.920;2022-09-12T14:46:07;6.50;;;5.35;;
29662;SDS011;16578;53.266;7.920;2022-09-12T14:48:51;5.53;;;5.00;;
29662;SDS011;16578;53.266;7.920;2022-09-12T14:51:21;5.88;;;4.88;;
29662;SDS011;16578;53.266;7.920;2022-09-12T14:53:52;6.13;;;5.18;;
29662;SDS011;16578;53.266;7.920;2022-09-12T14:56:21;5.65;;;4.97;;
29662;SDS011;16578;53.266;7.920;2022-09-12T14:59:24;6.78;;;5.05;;
29662;SDS011;16578;53.266;7.920;2022-09-12T15:04:41;5.67;;;5.07;;
29662;SDS011;16578;53.266;7.920;2022-09-12T15:07:29;8.55;;;5.13;;
29662;SDS011;16578;53.266;7.920;2022-09-12T15:09:59;6.50;;;5.70;;
29662;SDS011;16578;53.266;7.920;2022-09-12T15:12:30;5.28;;;4.78;;
29662;SDS011;16578;53.266;7.920;2022-09-12T15:14:57;5.88;;;5.28;;
29662;SDS011;16578;53.266;7.920;2022-09-12T15:17:27;5.15;;;4.70;;
29662;SDS011;16578;53.266;7.920;2022-09-12T15:19:53;5.30;;;4.80;;
29662;SDS011;16578;53.266;7.920;2022-09-12T15:22:18;4.13;;;3.75;;
29662;SDS011;16578;53.266;7.920;2022-09-12T15:24:47;5.13;;;4.63;;
29662;SDS011;16578;53.266;7.920;2022-09-12T15:27:13;5.80;;;4.70;;
29662;SDS011;16578;53.266;7.920;2022-09-12T15:29:39;6.70;;;5.05;;
29662;SDS011;16578;53.266;7.920;2022-09-12T15:32:05;4.82;;;4.20;;
29662;SDS011;16578;53.266;7.920;2022-09-12T15:34:38;10.45;;;8.85;;
29662;SDS011;16578;53.266;7.920;2022-09-12T15:37:08;15.93;;;11.90;;
29662;SDS011;16578;53.266;7.920;2022-09-12T15:39:38;11.70;;;8.00;;
29662;SDS011;16578;53.266;7.920;2022-09-12T15:42:03;8.70;;;7.28;;
29662;SDS011;16578;53.266;7.920;2022-09-12T15:44:29;7.75;;;5.60;;
29662;SDS011;16578;53.266;7.920;2022-09-12T15:46:55;10.25;;;6.60;;
29662;SDS011;16578;53.266;7.920;2022-09-12T15:49:20;7.13;;;6.05;;
29662;SDS011;16578;53.266;7.920;2022-09-12T15:51:46;6.15;;;5.55;;
29662;SDS011;16578;53.266;7.920;2022-09-12T15:54:11;6.03;;;4.75;;
29662;SDS011;16578;53.266;7.920;2022-09-12T15:56:39;4.95;;;4.47;;
29662;SDS011;16578;53.266;7.920;2022-09-12T15:59:04;4.18;;;3.78;;
29662;SDS011;16578;53.266;7.920;2022-09-12T16:01:30;4.65;;;4.20;;
29662;SDS011;16578;53.266;7.920;2022-09-12T16:03:56;5.68;;;4.30;;
29662;SDS011;16578;53.266;7.920;2022-09-12T16:06:22;6.00;;;4.20;;
29662;SDS011;16578;53.266;7.920;2022-09-12T16:08:48;5.55;;;4.38;;
29662;SDS011;16578;53.266;7.920;2022-09-12T16:11:17;4.05;;;3.65;;
29662;SDS011;16578;53.266;7.920;2022-09-12T16:13:45;6.32;;;4.20;;
29662;SDS011;16578;53.266;7.920;2022-09-12T16:16:11;4.22;;;3.42;;
29662;SDS011;16578;53.266;7.920;2022-09-12T16:18:39;5.13;;;4.20;;
29662;SDS011;16578;53.266;7.920;2022-09-12T16:21:05;4.63;;;4.00;;
29662;SDS011;16578;53.266;7.920;2022-09-12T16:23:31;3.78;;;3.38;;
29662;SDS011;16578;53.266;7.920;2022-09-12T16:25:57;3.42;;;3.10;;
29662;SDS011;16578;53.266;7.920;2022-09-12T16:28:23;3.90;;;3.50;;
29662;SDS011;16578;53.266;7.920;2022-09-12T16:33:22;4.07;;;3.58;;
29662;SDS011;16578;53.266;7.920;2022-09-12T16:35:48;3.97;;;3.30;;
29662;SDS011;16578;53.266;7.920;2022-09-12T16:38:15;4.07;;;3.55;;
29662;SDS011;16578;53.266;7.920;2022-09-12T16:40:44;4.47;;;3.92;;
29662;SDS011;16578;53.266;7.920;2022-09-12T16:43:10;5.53;;;4.00;;
29662;SDS011;16578;53.266;7.920;2022-09-12T16:45:35;3.50;;;3.20;;
29662;SDS011;16578;53.266;7.920;2022-09-12T16:48:01;4.78;;;3.90;;
29662;SDS011;16578;53.266;7.920;2022-09-12T16:50:26;5.90;;;3.95;;
29662;SDS011;16578;53.266;7.920;2022-09-12T16:52:53;5.25;;;3.92;;
29662;SDS011;16578;53.266;7.920;2022-09-12T16:55:18;5.20;;;3.58;;
29662;SDS011;16578;53.266;7.920;2022-09-12T16:57:47;4.43;;;3.65;;
29662;SDS011;16578;53.266;7.920;2022-09-12T17:00:13;5.05;;;3.78;;
29662;SDS011;16578;53.266;7.920;2022-09-12T17:02:39;4.10;;;3.67;;
29662;SDS011;16578;53.266;7.920;2022-09-12T17:05:05;4.45;;;3.92;;
29662;SDS011;16578;53.266;7.920;2022-09-12T17:07:31;4.38;;;3.67;;
29662;SDS011;16578;53.266;7.920;2022-09-12T17:09:58;4.47;;;3.75;;
29662;SDS011;16578;53.266;7.920;2022-09-12T17:12:23;6.57;;;4.05;;
29662;SDS011;16578;53.266;7.920;2022-09-12T17:14:49;4.22;;;3.83;;
29662;SDS011;16578;53.266;7.920;2022-09-12T17:17:15;5.00;;;4.40;;
29662;SDS011;16578;53.266;7.920;2022-09-12T17:19:41;5.20;;;3.85;;
29662;SDS011;16578;53.266;7.920;2022-09-12T17:22:07;4.38;;;3.97;;
29662;SDS011;16578;53.266;7.920;2022-09-12T17:24:33;4.15;;;3.75;;
29662;SDS011;16578;53.266;7.920;2022-09-12T17:26:58;6.13;;;4.00;;
29662;SDS011;16578;53.266;7.920;2022-09-12T17:29:24;4.80;;;4.40;;
29662;SDS011;16578;53.266;7.920;2022-09-12T17:31:50;5.50;;;3.85;;
29662;SDS011;16578;53.266;7.920;2022-09-12T17:34:16;6.05;;;4.60;;